sensor_id;sensor_type;location;lat;lon;timestamp;temperature;humidity
21193;DHT22;10754;51.106;7.164;2023-08-07T00:02:04;17.60;1.00
21193;DHT22;10754;51.106;7.164;2023-08-07T00:04:29;17.70;1.00
21193;DHT22;10754;51.106;7.164;2023-08-07T00:06:55;17.70;1.00
21193;DHT22;10754;51.106;7.164;2023-08-07T00:09:20;17.60;1.00
21193;DHT22;10754;51.106;7.164;2023-08-07T00:11:46;17.60;1.00
21193;DHT22;10754;51.106;7.164;2023-08-07T00:14:11;17.60;1.00
21193;DHT22;10754;51.106;7.164;2023-08-07T00:16:37;17.50;1.00
21193;DHT22;10754;51.106;7.164;2023-08-07T00:19:03;17.50;1.00
21193;DHT22;10754;51.106;7.164;2023-08-07T00:21:28;17.60;1.00
21193;DHT22;10754;51.106;7.164;2023-08-07T00:23:54;17.60;1.00
21193;DHT22;10754;51.106;7.164;2023-08-07T00:26:20;17.50;1.00
21193;DHT22;10754;51.106;7.164;2023-08-07T00:28:46;17.40;1.00
21193;DHT22;10754;51.106;7.164;2023-08-07T00:31:12;17.40;1.00
21193;DHT22;10754;51.106;7.164;2023-08-07T00:33:38;17.50;1.00
21193;DHT22;10754;51.106;7.164;2023-08-07T00:36:03;17.50;1.00
21193;DHT22;10754;51.106;7.164;2023-08-07T00:38:29;17.50;1.00
21193;DHT22;10754;51.106;7.164;2023-08-07T00:40:55;17.50;1.00
21193;DHT22;10754;51.106;7.164;2023-08-07T00:43:20;17.50;1.00
21193;DHT22;10754;51.106;7.164;2023-08-07T00:45:46;17.30;1.00
21193;DHT22;10754;51.106;7.164;2023-08-07T00:48:13;17.40;1.00
21193;DHT22;10754;51.106;7.164;2023-08-07T00:50:41;17.40;1.00
21193;DHT22;10754;51.106;7.164;2023-08-07T00:53:07;17.30;1.00
21193;DHT22;10754;51.106;7.164;2023-08-07T00:55:33;17.30;1.00
21193;DHT22;10754;51.106;7.164;2023-08-07T00:57:59;17.40;1.00
21193;DHT22;10754;51.106;7.164;2023-08-07T01:00:26;17.40;1.00
21193;DHT22;10754;51.106;7.164;2023-08-07T01:02:54;17.40;1.00
21193;DHT22;10754;51.106;7.164;2023-08-07T01:05:21;17.40;1.00
21193;DHT22;10754;51.106;7.164;2023-08-07T01:07:47;17.40;1.00
21193;DHT22;10754;51.106;7.164;2023-08-07T01:10:13;17.50;1.00
21193;DHT22;10754;51.106;7.164;2023-08-07T01:12:52;17.50;1.00
21193;DHT22;10754;51.106;7.164;2023-08-07T01:15:24;17.50;1.00
21193;DHT22;10754;51.106;7.164;2023-08-07T01:17:52;17.50;1.00
21193;DHT22;10754;51.106;7.164;2023-08-07T01:20:19;17.50;1.00
21193;DHT22;10754;51.106;7.164;2023-08-07T01:22:45;17.40;1.00
21193;DHT22;10754;51.106;7.164;2023-08-07T01:25:10;17.60;1.00
21193;DHT22;10754;51.106;7.164;2023-08-07T01:27:37;17.50;1.00
21193;DHT22;10754;51.106;7.164;2023-08-07T01:30:16;17.40;1.00
21193;DHT22;10754;51.106;7.164;2023-08-07T01:35:44;17.50;1.00
21193;DHT22;10754;51.106;7.164;2023-08-07T01:38:12;17.40;1.00
21193;DHT22;10754;51.106;7.164;2023-08-07T01:40:42;17.40;1.00
21193;DHT22;10754;51.106;7.164;2023-08-07T01:43:08;17.40;1.00
21193;DHT22;10754;51.106;7.164;2023-08-07T01:45:34;17.30;1.00
21193;DHT22;10754;51.106;7.164;2023-08-07T01:48:00;17.30;1.00
21193;DHT22;10754;51.106;7.164;2023-08-07T01:50:25;17.20;1.00
21193;DHT22;10754;51.106;7.164;2023-08-07T01:52:51;17.30;1.00
21193;DHT22;10754;51.106;7.164;2023-08-07T01:55:19;17.30;1.00
21193;DHT22;10754;51.106;7.164;2023-08-07T01:57:44;17.20;1.00
21193;DHT22;10754;51.106;7.164;2023-08-07T02:00:10;17.30;1.00
21193;DHT22;10754;51.106;7.164;2023-08-07T02:02:37;17.20;1.00
21193;DHT22;10754;51.106;7.164;2023-08-07T02:05:03;17.30;1.00
21193;DHT22;10754;51.106;7.164;2023-08-07T02:07:29;17.20;1.00
21193;DHT22;10754;51.106;7.164;2023-08-07T02:09:54;17.30;1.00
21193;DHT22;10754;51.106;7.164;2023-08-07T02:12:20;17.30;1.00
21193;DHT22;10754;51.106;7.164;2023-08-07T02:14:45;17.40;1.00
21193;DHT22;10754;51.106;7.164;2023-08-07T02:17:11;17.20;1.00
21193;DHT22;10754;51.106;7.164;2023-08-07T02:19:36;17.30;1.00
21193;DHT22;10754;51.106;7.164;2023-08-07T02:22:02;17.30;1.00
21193;DHT22;10754;51.106;7.164;2023-08-07T02:24:28;17.30;1.00
21193;DHT22;10754;51.106;7.164;2023-08-07T02:26:53;17.40;1.00
21193;DHT22;10754;51.106;7.164;2023-08-07T02:29:19;17.30;1.00
21193;DHT22;10754;51.106;7.164;2023-08-07T02:31:44;17.30;1.00
21193;DHT22;10754;51.106;7.164;2023-08-07T02:34:10;17.20;1.00
21193;DHT22;10754;51.106;7.164;2023-08-07T02:36:35;17.10;1.00
21193;DHT22;10754;51.106;7.164;2023-08-07T02:39:01;16.80;1.00
21193;DHT22;10754;51.106;7.164;2023-08-07T02:41:27;16.80;1.00
21193;DHT22;10754;51.106;7.164;2023-08-07T02:43:53;16.80;1.00
21193;DHT22;10754;51.106;7.164;2023-08-07T02:46:18;16.70;1.00
21193;DHT22;10754;51.106;7.164;2023-08-07T02:48:44;16.70;1.00
21193;DHT22;10754;51.106;7.164;2023-08-07T02:51:10;16.70;1.00
21193;DHT22;10754;51.106;7.164;2023-08-07T02:53:35;16.70;1.00
21193;DHT22;10754;51.106;7.164;2023-08-07T02:56:01;16.80;1.00
21193;DHT22;10754;51.106;7.164;2023-08-07T02:58:26;16.70;1.00
21193;DHT22;10754;51.106;7.164;2023-08-07T03:00:52;16.70;1.00
21193;DHT22;10754;51.106;7.164;2023-08-07T03:03:17;16.60;1.00
21193;DHT22;10754;51.106;7.164;2023-08-07T03:05:50;16.60;1.00
21193;DHT22;10754;51.106;7.164;2023-08-07T03:08:16;16.60;1.00
21193;DHT22;10754;51.106;7.164;2023-08-07T03:10:41;16.70;1.00
21193;DHT22;10754;51.106;7.164;2023-08-07T03:13:07;16.70;1.00
21193;DHT22;10754;51.106;7.164;2023-08-07T03:15:32;16.70;1.00
21193;DHT22;10754;51.106;7.164;2023-08-07T03:17:58;16.70;1.00
21193;DHT22;10754;51.106;7.164;2023-08-07T03:20:24;16.70;1.00
21193;DHT22;10754;51.106;7.164;2023-08-07T03:22:49;16.60;1.00
21193;DHT22;10754;51.106;7.164;2023-08-07T03:25:15;16.60;1.00
21193;DHT22;10754;51.106;7.164;2023-08-07T03:27:40;16.50;1.00
21193;DHT22;10754;51.106;7.164;2023-08-07T03:30:06;16.40;1.00
21193;DHT22;10754;51.106;7.164;2023-08-07T03:32:32;16.50;1.00
21193;DHT22;10754;51.106;7.164;2023-08-07T03:34:57;16.50;1.00
21193;DHT22;10754;51.106;7.164;2023-08-07T03:37:23;16.60;1.00
21193;DHT22;10754;51.106;7.164;2023-08-07T03:39:48;16.50;1.00
21193;DHT22;10754;51.106;7.164;2023-08-07T03:42:14;16.60;1.00
21193;DHT22;10754;51.106;7.164;2023-08-07T03:44:42;16.60;1.00
21193;DHT22;10754;51.106;7.164;2023-08-07T03:47:08;16.50;1.00
21193;DHT22;10754;51.106;7.164;2023-08-07T03:49:33;16.60;1.00
21193;DHT22;10754;51.106;7.164;2023-08-07T03:51:59;16.60;1.00
21193;DHT22;10754;51.106;7.164;2023-08-07T03:54:25;16.60;1.00
21193;DHT22;10754;51.106;7.164;2023-08-07T03:56:50;16.60;1.00
21193;DHT22;10754;51.106;7.164;2023-08-07T03:59:17;16.60;1.00
21193;DHT22;10754;51.106;7.164;2023-08-07T04:01:42;16.60;1.00
21193;DHT22;10754;51.106;7.164;2023-08-07T04:04:08;16.70;1.00
21193;DHT22;10754;51.106;7.164;2023-08-07T04:06:33;16.60;1.00
21193;DHT22;10754;51.106;7.164;2023-08-07T04:08:59;16.60;1.00
21193;DHT22;10754;51.106;7.164;2023-08-07T04:11:24;16.60;1.00
21193;DHT22;10754;51.106;7.164;2023-08-07T04:13:50;16.70;1.00
21193;DHT22;10754;51.106;7.164;2023-08-07T04:16:16;16.80;1.00
21193;DHT22;10754;51.106;7.164;2023-08-07T04:18:42;16.80;1.00
21193;DHT22;10754;51.106;7.164;2023-08-07T04:21:07;16.80;1.00
21193;DHT22;10754;51.106;7.164;2023-08-07T04:23:33;16.70;1.00
21193;DHT22;10754;51.106;7.164;2023-08-07T04:25:59;16.70;1.00
21193;DHT22;10754;51.106;7.164;2023-08-07T04:28:27;16.70;1.00
21193;DHT22;10754;51.106;7.164;2023-08-07T04:30:53;16.80;1.00
21193;DHT22;10754;51.106;7.164;2023-08-07T04:33:19;16.70;1.00
21193;DHT22;10754;51.106;7.164;2023-08-07T04:35:45;16.80;1.00
21193;DHT22;10754;51.106;7.164;2023-08-07T04:38:15;16.90;1.00
21193;DHT22;10754;51.106;7.164;2023-08-07T04:40:47;16.80;1.00
21193;DHT22;10754;51.106;7.164;2023-08-07T04:43:14;16.90;1.00
21193;DHT22;10754;51.106;7.164;2023-08-07T04:45:40;16.80;1.00
21193;DHT22;10754;51.106;7.164;2023-08-07T04:48:07;16.80;1.00
21193;DHT22;10754;51.106;7.164;2023-08-07T04:50:32;16.80;1.00
21193;DHT22;10754;51.106;7.164;2023-08-07T04:52:58;16.80;1.00
21193;DHT22;10754;51.106;7.164;2023-08-07T04:55:23;16.80;1.00
21193;DHT22;10754;51.106;7.164;2023-08-07T04:57:49;16.80;1.00
21193;DHT22;10754;51.106;7.164;2023-08-07T05:00:16;16.70;1.00
21193;DHT22;10754;51.106;7.164;2023-08-07T05:02:42;16.70;1.00
21193;DHT22;10754;51.106;7.164;2023-08-07T05:05:08;16.80;1.00
21193;DHT22;10754;51.106;7.164;2023-08-07T05:07:35;16.80;1.00
21193;DHT22;10754;51.106;7.164;2023-08-07T05:10:02;16.90;1.00
21193;DHT22;10754;51.106;7.164;2023-08-07T05:12:28;16.60;1.00
21193;DHT22;10754;51.106;7.164;2023-08-07T05:14:53;16.70;1.00
21193;DHT22;10754;51.106;7.164;2023-08-07T05:17:19;16.60;1.00
21193;DHT22;10754;51.106;7.164;2023-08-07T05:19:44;16.70;1.00
21193;DHT22;10754;51.106;7.164;2023-08-07T05:22:10;16.70;1.00
21193;DHT22;10754;51.106;7.164;2023-08-07T05:24:35;16.70;1.00
21193;DHT22;10754;51.106;7.164;2023-08-07T05:27:05;16.70;1.00
21193;DHT22;10754;51.106;7.164;2023-08-07T05:29:33;16.70;1.00
21193;DHT22;10754;51.106;7.164;2023-08-07T05:31:59;16.70;1.00
21193;DHT22;10754;51.106;7.164;2023-08-07T05:34:24;16.80;1.00
21193;DHT22;10754;51.106;7.164;2023-08-07T05:36:50;16.70;1.00
21193;DHT22;10754;51.106;7.164;2023-08-07T05:39:15;16.70;1.00
21193;DHT22;10754;51.106;7.164;2023-08-07T05:41:41;16.80;1.00
21193;DHT22;10754;51.106;7.164;2023-08-07T05:44:06;16.80;1.00
21193;DHT22;10754;51.106;7.164;2023-08-07T05:46:32;16.70;1.00
21193;DHT22;10754;51.106;7.164;2023-08-07T05:48:57;16.70;1.00
21193;DHT22;10754;51.106;7.164;2023-08-07T05:51:23;16.70;1.00
21193;DHT22;10754;51.106;7.164;2023-08-07T05:53:48;16.70;1.00
21193;DHT22;10754;51.106;7.164;2023-08-07T05:56:14;16.70;1.00
21193;DHT22;10754;51.106;7.164;2023-08-07T05:58:39;16.70;1.00
21193;DHT22;10754;51.106;7.164;2023-08-07T06:01:05;16.80;1.00
21193;DHT22;10754;51.106;7.164;2023-08-07T06:03:31;16.80;1.00
21193;DHT22;10754;51.106;7.164;2023-08-07T06:05:57;16.80;1.00
21193;DHT22;10754;51.106;7.164;2023-08-07T06:08:22;16.70;1.00
21193;DHT22;10754;51.106;7.164;2023-08-07T06:10:48;16.80;1.00
21193;DHT22;10754;51.106;7.164;2023-08-07T06:13:13;16.80;1.00
21193;DHT22;10754;51.106;7.164;2023-08-07T06:15:39;16.80;1.00
21193;DHT22;10754;51.106;7.164;2023-08-07T06:18:04;16.80;1.00
21193;DHT22;10754;51.106;7.164;2023-08-07T06:20:30;16.70;1.00
21193;DHT22;10754;51.106;7.164;2023-08-07T06:22:55;16.80;1.00
21193;DHT22;10754;51.106;7.164;2023-08-07T06:25:21;16.70;1.00
21193;DHT22;10754;51.106;7.164;2023-08-07T06:27:46;16.70;1.00
21193;DHT22;10754;51.106;7.164;2023-08-07T06:30:12;16.80;1.00
21193;DHT22;10754;51.106;7.164;2023-08-07T06:32:39;16.70;1.00
21193;DHT22;10754;51.106;7.164;2023-08-07T06:35:05;16.70;1.00
21193;DHT22;10754;51.106;7.164;2023-08-07T06:37:31;16.70;1.00
21193;DHT22;10754;51.106;7.164;2023-08-07T06:39:57;16.60;1.00
21193;DHT22;10754;51.106;7.164;2023-08-07T06:42:22;16.60;1.00
21193;DHT22;10754;51.106;7.164;2023-08-07T06:44:48;16.60;1.00
21193;DHT22;10754;51.106;7.164;2023-08-07T06:47:13;16.50;1.00
21193;DHT22;10754;51.106;7.164;2023-08-07T06:49:39;16.60;1.00
21193;DHT22;10754;51.106;7.164;2023-08-07T06:52:05;16.50;1.00
21193;DHT22;10754;51.106;7.164;2023-08-07T06:54:30;16.60;1.00
21193;DHT22;10754;51.106;7.164;2023-08-07T06:56:56;16.70;1.00
21193;DHT22;10754;51.106;7.164;2023-08-07T06:59:21;16.60;1.00
21193;DHT22;10754;51.106;7.164;2023-08-07T07:01:47;16.70;1.00
21193;DHT22;10754;51.106;7.164;2023-08-07T07:04:13;16.70;1.00
21193;DHT22;10754;51.106;7.164;2023-08-07T07:06:38;16.80;1.00
21193;DHT22;10754;51.106;7.164;2023-08-07T07:09:04;16.70;1.00
21193;DHT22;10754;51.106;7.164;2023-08-07T07:11:30;16.70;1.00
21193;DHT22;10754;51.106;7.164;2023-08-07T07:13:55;16.70;1.00
21193;DHT22;10754;51.106;7.164;2023-08-07T07:16:21;16.80;1.00
21193;DHT22;10754;51.106;7.164;2023-08-07T07:18:50;16.80;1.00
21193;DHT22;10754;51.106;7.164;2023-08-07T07:21:16;16.90;1.00
21193;DHT22;10754;51.106;7.164;2023-08-07T07:23:42;16.90;1.00
21193;DHT22;10754;51.106;7.164;2023-08-07T07:26:08;16.80;1.00
21193;DHT22;10754;51.106;7.164;2023-08-07T07:28:33;16.80;1.00
21193;DHT22;10754;51.106;7.164;2023-08-07T07:30:59;16.80;1.00
21193;DHT22;10754;51.106;7.164;2023-08-07T07:33:24;16.70;1.00
21193;DHT22;10754;51.106;7.164;2023-08-07T07:35:50;16.80;1.00
21193;DHT22;10754;51.106;7.164;2023-08-07T07:38:15;16.80;1.00
21193;DHT22;10754;51.106;7.164;2023-08-07T07:40:41;16.70;1.00
21193;DHT22;10754;51.106;7.164;2023-08-07T07:43:07;16.70;1.00
21193;DHT22;10754;51.106;7.164;2023-08-07T07:45:33;16.80;1.00
21193;DHT22;10754;51.106;7.164;2023-08-07T07:48:01;16.80;1.00
21193;DHT22;10754;51.106;7.164;2023-08-07T07:50:27;16.80;1.00
21193;DHT22;10754;51.106;7.164;2023-08-07T07:52:52;16.80;1.00
21193;DHT22;10754;51.106;7.164;2023-08-07T07:55:18;16.80;1.00
21193;DHT22;10754;51.106;7.164;2023-08-07T07:57:44;16.70;1.00
21193;DHT22;10754;51.106;7.164;2023-08-07T08:00:12;16.80;1.00
21193;DHT22;10754;51.106;7.164;2023-08-07T08:02:39;16.90;1.00
21193;DHT22;10754;51.106;7.164;2023-08-07T08:05:06;16.90;1.00
21193;DHT22;10754;51.106;7.164;2023-08-07T08:07:32;16.90;1.00
21193;DHT22;10754;51.106;7.164;2023-08-07T08:10:00;16.90;1.00
21193;DHT22;10754;51.106;7.164;2023-08-07T08:12:25;16.90;1.00
21193;DHT22;10754;51.106;7.164;2023-08-07T08:14:51;16.90;1.00
21193;DHT22;10754;51.106;7.164;2023-08-07T08:17:16;16.90;1.00
21193;DHT22;10754;51.106;7.164;2023-08-07T08:19:42;16.70;1.00
21193;DHT22;10754;51.106;7.164;2023-08-07T08:22:07;16.70;1.00
21193;DHT22;10754;51.106;7.164;2023-08-07T08:24:33;16.70;1.00
21193;DHT22;10754;51.106;7.164;2023-08-07T08:26:58;16.60;1.00
21193;DHT22;10754;51.106;7.164;2023-08-07T08:29:24;16.60;1.00
21193;DHT22;10754;51.106;7.164;2023-08-07T08:31:51;16.60;1.00
21193;DHT22;10754;51.106;7.164;2023-08-07T08:34:18;16.70;1.00
21193;DHT22;10754;51.106;7.164;2023-08-07T08:36:44;16.70;1.00
21193;DHT22;10754;51.106;7.164;2023-08-07T08:39:09;16.80;1.00
21193;DHT22;10754;51.106;7.164;2023-08-07T08:41:35;16.90;1.00
21193;DHT22;10754;51.106;7.164;2023-08-07T08:44:01;16.90;1.00
21193;DHT22;10754;51.106;7.164;2023-08-07T08:46:29;17.00;1.00
21193;DHT22;10754;51.106;7.164;2023-08-07T08:48:57;17.00;1.00
21193;DHT22;10754;51.106;7.164;2023-08-07T08:51:25;17.10;1.00
21193;DHT22;10754;51.106;7.164;2023-08-07T08:53:54;17.00;1.00
21193;DHT22;10754;51.106;7.164;2023-08-07T08:56:22;17.10;1.00
21193;DHT22;10754;51.106;7.164;2023-08-07T08:58:50;17.20;1.00
21193;DHT22;10754;51.106;7.164;2023-08-07T09:01:17;17.10;1.00
21193;DHT22;10754;51.106;7.164;2023-08-07T09:03:44;17.10;1.00
21193;DHT22;10754;51.106;7.164;2023-08-07T09:06:10;17.30;1.00
21193;DHT22;10754;51.106;7.164;2023-08-07T09:08:38;17.20;1.00
21193;DHT22;10754;51.106;7.164;2023-08-07T09:11:05;17.30;1.00
21193;DHT22;10754;51.106;7.164;2023-08-07T09:13:33;17.40;1.00
21193;DHT22;10754;51.106;7.164;2023-08-07T09:16:01;17.50;1.00
21193;DHT22;10754;51.106;7.164;2023-08-07T09:18:27;17.60;1.00
21193;DHT22;10754;51.106;7.164;2023-08-07T09:20:53;17.60;1.00
21193;DHT22;10754;51.106;7.164;2023-08-07T09:23:18;17.60;1.00
21193;DHT22;10754;51.106;7.164;2023-08-07T09:25:44;17.60;1.00
21193;DHT22;10754;51.106;7.164;2023-08-07T09:28:10;17.50;1.00
21193;DHT22;10754;51.106;7.164;2023-08-07T09:30:36;17.60;1.00
21193;DHT22;10754;51.106;7.164;2023-08-07T09:33:03;17.60;1.00
21193;DHT22;10754;51.106;7.164;2023-08-07T09:35:30;17.60;1.00
21193;DHT22;10754;51.106;7.164;2023-08-07T09:37:57;17.60;1.00
21193;DHT22;10754;51.106;7.164;2023-08-07T09:40:22;17.70;1.00
21193;DHT22;10754;51.106;7.164;2023-08-07T09:42:52;17.80;1.00
21193;DHT22;10754;51.106;7.164;2023-08-07T09:45:25;17.90;1.00
21193;DHT22;10754;51.106;7.164;2023-08-07T09:48:04;18.10;1.00
21193;DHT22;10754;51.106;7.164;2023-08-07T09:50:32;18.20;1.00
21193;DHT22;10754;51.106;7.164;2023-08-07T09:52:58;18.30;1.00
21193;DHT22;10754;51.106;7.164;2023-08-07T09:55:24;18.30;1.00
21193;DHT22;10754;51.106;7.164;2023-08-07T09:57:50;18.30;1.00
21193;DHT22;10754;51.106;7.164;2023-08-07T10:00:16;18.40;1.00
21193;DHT22;10754;51.106;7.164;2023-08-07T10:02:46;18.40;1.00
21193;DHT22;10754;51.106;7.164;2023-08-07T10:05:13;18.40;1.00
21193;DHT22;10754;51.106;7.164;2023-08-07T10:07:39;18.50;1.00
21193;DHT22;10754;51.106;7.164;2023-08-07T10:10:06;18.50;1.00
21193;DHT22;10754;51.106;7.164;2023-08-07T10:12:32;18.60;1.00
21193;DHT22;10754;51.106;7.164;2023-08-07T10:14:59;18.70;1.00
21193;DHT22;10754;51.106;7.164;2023-08-07T10:17:25;18.80;1.00
21193;DHT22;10754;51.106;7.164;2023-08-07T10:19:51;18.80;1.00
21193;DHT22;10754;51.106;7.164;2023-08-07T10:22:20;18.80;1.00
21193;DHT22;10754;51.106;7.164;2023-08-07T10:24:50;18.80;1.00
21193;DHT22;10754;51.106;7.164;2023-08-07T10:27:17;18.90;1.00
21193;DHT22;10754;51.106;7.164;2023-08-07T10:29:46;18.80;1.00
21193;DHT22;10754;51.106;7.164;2023-08-07T10:32:13;18.80;1.00
21193;DHT22;10754;51.106;7.164;2023-08-07T10:34:40;18.80;1.00
21193;DHT22;10754;51.106;7.164;2023-08-07T10:37:08;18.90;1.00
21193;DHT22;10754;51.106;7.164;2023-08-07T10:39:34;18.90;1.00
21193;DHT22;10754;51.106;7.164;2023-08-07T10:42:00;19.00;1.00
21193;DHT22;10754;51.106;7.164;2023-08-07T10:44:30;19.10;1.00
21193;DHT22;10754;51.106;7.164;2023-08-07T10:46:57;19.20;1.00
21193;DHT22;10754;51.106;7.164;2023-08-07T10:51:56;19.40;1.00
21193;DHT22;10754;51.106;7.164;2023-08-07T10:54:24;19.50;1.00
21193;DHT22;10754;51.106;7.164;2023-08-07T10:56:53;19.70;1.00
21193;DHT22;10754;51.106;7.164;2023-08-07T10:59:19;19.70;1.00
21193;DHT22;10754;51.106;7.164;2023-08-07T11:01:51;20.00;1.00
21193;DHT22;10754;51.106;7.164;2023-08-07T11:04:17;20.30;1.00
21193;DHT22;10754;51.106;7.164;2023-08-07T11:06:47;20.30;1.00
21193;DHT22;10754;51.106;7.164;2023-08-07T11:09:12;20.40;1.00
21193;DHT22;10754;51.106;7.164;2023-08-07T11:11:48;20.70;1.00
21193;DHT22;10754;51.106;7.164;2023-08-07T11:14:15;20.60;1.00
21193;DHT22;10754;51.106;7.164;2023-08-07T11:16:42;20.40;1.00
21193;DHT22;10754;51.106;7.164;2023-08-07T11:19:08;20.20;1.00
21193;DHT22;10754;51.106;7.164;2023-08-07T11:21:34;20.20;1.00
21193;DHT22;10754;51.106;7.164;2023-08-07T11:24:00;20.20;1.00
21193;DHT22;10754;51.106;7.164;2023-08-07T11:26:25;20.30;1.00
21193;DHT22;10754;51.106;7.164;2023-08-07T11:28:53;20.40;1.00
21193;DHT22;10754;51.106;7.164;2023-08-07T11:31:19;20.40;1.00
21193;DHT22;10754;51.106;7.164;2023-08-07T11:33:45;20.30;1.00
21193;DHT22;10754;51.106;7.164;2023-08-07T11:36:14;20.60;1.00
21193;DHT22;10754;51.106;7.164;2023-08-07T11:38:41;20.80;1.00
21193;DHT22;10754;51.106;7.164;2023-08-07T11:41:16;20.90;1.00
21193;DHT22;10754;51.106;7.164;2023-08-07T11:43:42;21.20;1.00
21193;DHT22;10754;51.106;7.164;2023-08-07T11:46:12;21.30;1.00
21193;DHT22;10754;51.106;7.164;2023-08-07T11:48:39;21.60;1.00
21193;DHT22;10754;51.106;7.164;2023-08-07T11:51:06;21.80;1.00
21193;DHT22;10754;51.106;7.164;2023-08-07T11:53:34;22.10;1.00
21193;DHT22;10754;51.106;7.164;2023-08-07T11:56:06;22.40;1.00
21193;DHT22;10754;51.106;7.164;2023-08-07T11:58:39;22.70;1.00
21193;DHT22;10754;51.106;7.164;2023-08-07T12:01:25;22.90;1.00
21193;DHT22;10754;51.106;7.164;2023-08-07T12:03:54;22.90;1.00
21193;DHT22;10754;51.106;7.164;2023-08-07T12:06:20;22.60;1.00
21193;DHT22;10754;51.106;7.164;2023-08-07T12:08:49;22.90;1.00
21193;DHT22;10754;51.106;7.164;2023-08-07T12:11:15;22.70;1.00
21193;DHT22;10754;51.106;7.164;2023-08-07T12:13:42;22.70;1.00
21193;DHT22;10754;51.106;7.164;2023-08-07T12:16:09;22.60;1.00
21193;DHT22;10754;51.106;7.164;2023-08-07T12:18:35;22.20;1.00
21193;DHT22;10754;51.106;7.164;2023-08-07T12:21:04;22.20;1.00
21193;DHT22;10754;51.106;7.164;2023-08-07T12:23:36;22.30;1.00
21193;DHT22;10754;51.106;7.164;2023-08-07T12:26:02;22.70;1.00
21193;DHT22;10754;51.106;7.164;2023-08-07T12:28:28;22.00;1.00
21193;DHT22;10754;51.106;7.164;2023-08-07T12:30:53;22.20;1.00
21193;DHT22;10754;51.106;7.164;2023-08-07T12:33:19;21.80;1.00
21193;DHT22;10754;51.106;7.164;2023-08-07T12:35:45;21.70;1.00
21193;DHT22;10754;51.106;7.164;2023-08-07T12:38:11;22.40;1.00
21193;DHT22;10754;51.106;7.164;2023-08-07T12:40:40;22.40;1.00
21193;DHT22;10754;51.106;7.164;2023-08-07T12:43:05;22.40;1.00
21193;DHT22;10754;51.106;7.164;2023-08-07T12:45:32;22.70;1.00
21193;DHT22;10754;51.106;7.164;2023-08-07T12:47:58;23.80;1.00
21193;DHT22;10754;51.106;7.164;2023-08-07T12:50:23;24.80;99.90
21193;DHT22;10754;51.106;7.164;2023-08-07T12:52:49;25.70;99.90
21193;DHT22;10754;51.106;7.164;2023-08-07T12:55:15;26.30;99.90
21193;DHT22;10754;51.106;7.164;2023-08-07T12:57:41;26.60;99.90
21193;DHT22;10754;51.106;7.164;2023-08-07T13:00:11;27.70;99.90
21193;DHT22;10754;51.106;7.164;2023-08-07T13:02:47;28.30;99.90
21193;DHT22;10754;51.106;7.164;2023-08-07T13:05:13;28.30;99.90
21193;DHT22;10754;51.106;7.164;2023-08-07T13:07:40;27.10;99.90
21193;DHT22;10754;51.106;7.164;2023-08-07T13:10:07;27.20;99.90
21193;DHT22;10754;51.106;7.164;2023-08-07T13:12:35;27.20;99.90
21193;DHT22;10754;51.106;7.164;2023-08-07T13:15:01;27.20;99.90
21193;DHT22;10754;51.106;7.164;2023-08-07T13:17:27;26.80;99.90
21193;DHT22;10754;51.106;7.164;2023-08-07T13:19:52;27.20;99.90
21193;DHT22;10754;51.106;7.164;2023-08-07T13:22:17;26.40;99.90
21193;DHT22;10754;51.106;7.164;2023-08-07T13:24:43;27.00;99.90
21193;DHT22;10754;51.106;7.164;2023-08-07T13:27:09;26.70;99.90
21193;DHT22;10754;51.106;7.164;2023-08-07T13:29:34;26.60;99.90
21193;DHT22;10754;51.106;7.164;2023-08-07T13:32:02;26.60;99.90
21193;DHT22;10754;51.106;7.164;2023-08-07T13:34:32;26.40;99.90
21193;DHT22;10754;51.106;7.164;2023-08-07T13:36:57;27.20;99.90
21193;DHT22;10754;51.106;7.164;2023-08-07T13:39:24;27.50;99.90
21193;DHT22;10754;51.106;7.164;2023-08-07T13:41:50;27.10;99.90
21193;DHT22;10754;51.106;7.164;2023-08-07T13:44:15;26.90;99.90
21193;DHT22;10754;51.106;7.164;2023-08-07T13:46:41;26.60;99.90
21193;DHT22;10754;51.106;7.164;2023-08-07T13:49:06;26.10;99.90
21193;DHT22;10754;51.106;7.164;2023-08-07T13:51:32;25.30;99.90
21193;DHT22;10754;51.106;7.164;2023-08-07T13:53:57;25.20;99.90
21193;DHT22;10754;51.106;7.164;2023-08-07T13:56:23;25.50;99.90
21193;DHT22;10754;51.106;7.164;2023-08-07T13:58:48;25.70;99.90
21193;DHT22;10754;51.106;7.164;2023-08-07T14:01:13;25.60;99.90
21193;DHT22;10754;51.106;7.164;2023-08-07T14:03:39;25.60;99.90
21193;DHT22;10754;51.106;7.164;2023-08-07T14:06:05;25.40;99.90
21193;DHT22;10754;51.106;7.164;2023-08-07T14:08:30;25.10;99.90
21193;DHT22;10754;51.106;7.164;2023-08-07T14:10:58;24.80;99.90
21193;DHT22;10754;51.106;7.164;2023-08-07T14:13:23;24.70;99.90
21193;DHT22;10754;51.106;7.164;2023-08-07T14:15:49;24.80;99.90
21193;DHT22;10754;51.106;7.164;2023-08-07T14:18:14;24.80;99.90
21193;DHT22;10754;51.106;7.164;2023-08-07T14:20:41;25.00;99.90
21193;DHT22;10754;51.106;7.164;2023-08-07T14:23:06;25.30;99.90
21193;DHT22;10754;51.106;7.164;2023-08-07T14:25:32;25.00;99.90
21193;DHT22;10754;51.106;7.164;2023-08-07T14:27:57;24.60;99.90
21193;DHT22;10754;51.106;7.164;2023-08-07T14:30:23;24.30;99.90
21193;DHT22;10754;51.106;7.164;2023-08-07T14:32:49;24.20;99.90
21193;DHT22;10754;51.106;7.164;2023-08-07T14:35:15;24.00;99.90
21193;DHT22;10754;51.106;7.164;2023-08-07T14:37:40;23.70;99.90
21193;DHT22;10754;51.106;7.164;2023-08-07T14:40:06;23.60;99.90
21193;DHT22;10754;51.106;7.164;2023-08-07T14:42:32;23.40;99.90
21193;DHT22;10754;51.106;7.164;2023-08-07T14:44:58;23.40;99.90
21193;DHT22;10754;51.106;7.164;2023-08-07T14:47:24;23.40;99.90
21193;DHT22;10754;51.106;7.164;2023-08-07T14:49:50;23.20;99.90
21193;DHT22;10754;51.106;7.164;2023-08-07T14:52:15;23.20;99.90
21193;DHT22;10754;51.106;7.164;2023-08-07T14:54:41;23.10;99.90
21193;DHT22;10754;51.106;7.164;2023-08-07T14:57:06;23.10;99.90
21193;DHT22;10754;51.106;7.164;2023-08-07T14:59:32;23.10;99.90
21193;DHT22;10754;51.106;7.164;2023-08-07T15:01:57;23.00;99.90
21193;DHT22;10754;51.106;7.164;2023-08-07T15:04:23;23.00;99.90
21193;DHT22;10754;51.106;7.164;2023-08-07T15:06:48;22.80;99.90
21193;DHT22;10754;51.106;7.164;2023-08-07T15:09:16;22.40;99.90
21193;DHT22;10754;51.106;7.164;2023-08-07T15:11:42;22.40;99.90
21193;DHT22;10754;51.106;7.164;2023-08-07T15:14:08;22.50;99.90
21193;DHT22;10754;51.106;7.164;2023-08-07T15:16:33;22.50;99.90
21193;DHT22;10754;51.106;7.164;2023-08-07T15:19:00;22.30;99.90
21193;DHT22;10754;51.106;7.164;2023-08-07T15:21:26;22.20;99.90
21193;DHT22;10754;51.106;7.164;2023-08-07T15:23:51;22.20;99.90
21193;DHT22;10754;51.106;7.164;2023-08-07T15:26:17;22.30;99.90
21193;DHT22;10754;51.106;7.164;2023-08-07T15:28:43;22.30;99.90
21193;DHT22;10754;51.106;7.164;2023-08-07T15:31:08;22.40;99.90
21193;DHT22;10754;51.106;7.164;2023-08-07T15:33:34;22.10;99.90
21193;DHT22;10754;51.106;7.164;2023-08-07T15:35:59;22.10;99.90
21193;DHT22;10754;51.106;7.164;2023-08-07T15:38:26;21.90;99.90
21193;DHT22;10754;51.106;7.164;2023-08-07T15:40:52;22.00;99.90
21193;DHT22;10754;51.106;7.164;2023-08-07T15:43:17;21.90;99.90